sensor_id;sensor_type;location;lat;lon;timestamp;pressure;altitude;pressure_sealevel;temperature;humidity
59487;BME280;45298;54.918;73.504;2023-02-03T00:00:42;101229.72;;;-23.35;72.49
59487;BME280;45298;54.918;73.504;2023-02-03T00:03:10;101342.84;;;-22.52;73.33
59487;BME280;45298;54.918;73.504;2023-02-03T00:05:40;101293.88;;;-22.83;72.61
59487;BME280;45298;54.918;73.504;2023-02-03T00:08:09;101299.16;;;-22.71;72.53
59487;BME280;45298;54.918;73.504;2023-02-03T00:10:39;101295.03;;;-22.79;72.59
59487;BME280;45298;54.918;73.504;2023-02-03T00:13:08;101306.25;;;-22.67;72.13
59487;BME280;45298;54.918;73.504;2023-02-03T00:15:37;101326.59;;;-22.64;72.42
59487;BME280;45298;54.918;73.504;2023-02-03T00:18:05;101243.84;;;-22.99;72.22
59487;BME280;45298;54.918;73.504;2023-02-03T00:20:34;101289.47;;;-22.58;73.25
59487;BME280;45298;54.918;73.504;2023-02-03T00:23:08;101333.03;;;-22.29;73.35
59487;BME280;45298;54.918;73.504;2023-02-03T00:25:37;101305.50;;;-22.47;72.63
59487;BME280;45298;54.918;73.504;2023-02-03T00:28:07;101336.50;;;-22.38;72.59
59487;BME280;45298;54.918;73.504;2023-02-03T00:30:37;101286.44;;;-22.73;72.69
59487;BME280;45298;54.918;73.504;2023-02-03T00:33:05;101335.13;;;-22.53;72.41
59487;BME280;45298;54.918;73.504;2023-02-03T00:35:37;101328.94;;;-22.57;72.89
59487;BME280;45298;54.918;73.504;2023-02-03T00:38:07;101255.25;;;-23.03;72.70
59487;BME280;45298;54.918;73.504;2023-02-03T00:40:35;101192.66;;;-23.38;72.75
59487;BME280;45298;54.918;73.504;2023-02-03T00:43:04;101323.09;;;-22.66;72.99
59487;BME280;45298;54.918;73.504;2023-02-03T00:45:33;101297.47;;;-22.90;72.96
59487;BME280;45298;54.918;73.504;2023-02-03T00:48:02;101342.63;;;-22.72;73.08
59487;BME280;45298;54.918;73.504;2023-02-03T00:50:32;101320.78;;;-22.82;72.60
59487;BME280;45298;54.918;73.504;2023-02-03T00:53:01;101291.94;;;-23.14;73.19
59487;BME280;45298;54.918;73.504;2023-02-03T00:55:29;101186.44;;;-23.69;72.83
59487;BME280;45298;54.918;73.504;2023-02-03T00:57:58;101313.16;;;-23.01;72.80
59487;BME280;45298;54.918;73.504;2023-02-03T01:00:27;101306.66;;;-22.99;72.88
59487;BME280;45298;54.918;73.504;2023-02-03T01:02:56;101282.19;;;-23.10;72.69
59487;BME280;45298;54.918;73.504;2023-02-03T01:05:27;101276.72;;;-23.06;72.88
59487;BME280;45298;54.918;73.504;2023-02-03T01:07:59;101297.19;;;-22.93;72.75
59487;BME280;45298;54.918;73.504;2023-02-03T01:10:29;101275.97;;;-23.05;72.42
59487;BME280;45298;54.918;73.504;2023-02-03T01:12:58;101270.03;;;-23.25;72.15
59487;BME280;45298;54.918;73.504;2023-02-03T01:15:27;101284.00;;;-23.18;72.21
59487;BME280;45298;54.918;73.504;2023-02-03T01:17:56;101179.06;;;-23.77;71.97
59487;BME280;45298;54.918;73.504;2023-02-03T01:20:25;101301.50;;;-23.01;72.33
59487;BME280;45298;54.918;73.504;2023-02-03T01:22:54;101171.66;;;-23.66;72.30
59487;BME280;45298;54.918;73.504;2023-02-03T01:25:23;101236.47;;;-23.25;72.27
59487;BME280;45298;54.918;73.504;2023-02-03T01:27:52;101283.66;;;-23.13;72.04
59487;BME280;45298;54.918;73.504;2023-02-03T01:30:23;101286.63;;;-23.17;71.87
59487;BME280;45298;54.918;73.504;2023-02-03T01:32:52;101244.09;;;-23.52;71.90
59487;BME280;45298;54.918;73.504;2023-02-03T01:35:23;101281.75;;;-23.43;72.04
59487;BME280;45298;54.918;73.504;2023-02-03T01:37:52;101294.59;;;-23.40;72.18
59487;BME280;45298;54.918;73.504;2023-02-03T01:40:21;101254.16;;;-23.52;72.67
59487;BME280;45298;54.918;73.504;2023-02-03T01:42:50;101285.84;;;-23.26;73.01
59487;BME280;45298;54.918;73.504;2023-02-03T01:45:18;101277.06;;;-23.21;72.75
59487;BME280;45298;54.918;73.504;2023-02-03T01:47:51;101264.84;;;-23.27;72.60
59487;BME280;45298;54.918;73.504;2023-02-03T01:50:24;101302.59;;;-23.16;72.03
59487;BME280;45298;54.918;73.504;2023-02-03T01:53:02;101222.75;;;-23.75;71.98
59487;BME280;45298;54.918;73.504;2023-02-03T01:55:36;101307.44;;;-23.37;72.11
59487;BME280;45298;54.918;73.504;2023-02-03T01:58:17;101276.75;;;-23.52;72.20
59487;BME280;45298;54.918;73.504;2023-02-03T02:00:48;101315.69;;;-23.38;72.29
59487;BME280;45298;54.918;73.504;2023-02-03T02:03:19;101274.66;;;-23.56;72.00
59487;BME280;45298;54.918;73.504;2023-02-03T02:05:55;101311.00;;;-23.44;71.91
59487;BME280;45298;54.918;73.504;2023-02-03T02:08:26;101305.25;;;-23.60;71.99
59487;BME280;45298;54.918;73.504;2023-02-03T02:10:58;101302.19;;;-23.66;71.95
59487;BME280;45298;54.918;73.504;2023-02-03T02:13:32;101305.25;;;-23.69;72.33
59487;BME280;45298;54.918;73.504;2023-02-03T02:16:06;101323.56;;;-23.44;72.31
59487;BME280;45298;54.918;73.504;2023-02-03T02:30:26;101343.50;;;-23.54;71.90
59487;BME280;45298;54.918;73.504;2023-02-03T02:41:37;101299.97;;;-23.63;72.51
59487;BME280;45298;54.918;73.504;2023-02-03T02:44:15;101298.78;;;-23.76;72.31
59487;BME280;45298;54.918;73.504;2023-02-03T02:46:48;101317.22;;;-23.66;72.16
59487;BME280;45298;54.918;73.504;2023-02-03T02:49:57;101349.97;;;-23.56;72.16
59487;BME280;45298;54.918;73.504;2023-02-03T02:52:30;101322.53;;;-23.81;72.30
59487;BME280;45298;54.918;73.504;2023-02-03T02:55:10;101368.75;;;-23.61;72.24
59487;BME280;45298;54.918;73.504;2023-02-03T02:57:43;101337.88;;;-23.78;72.64
59487;BME280;45298;54.918;73.504;2023-02-03T03:00:13;101356.78;;;-23.64;72.53
59487;BME280;45298;54.918;73.504;2023-02-03T03:02:42;101327.72;;;-23.70;72.70
59487;BME280;45298;54.918;73.504;2023-02-03T03:05:11;101357.06;;;-23.43;72.80
59487;BME280;45298;54.918;73.504;2023-02-03T03:07:54;101337.72;;;-23.44;72.91
59487;BME280;45298;54.918;73.504;2023-02-03T03:10:25;101243.78;;;-24.00;72.78
59487;BME280;45298;54.918;73.504;2023-02-03T03:13:09;101311.28;;;-23.49;72.42
59487;BME280;45298;54.918;73.504;2023-02-03T03:15:43;101351.28;;;-23.33;72.24
59487;BME280;45298;54.918;73.504;2023-02-03T03:18:16;101251.13;;;-23.93;71.84
59487;BME280;45298;54.918;73.504;2023-02-03T03:20:49;101354.97;;;-23.38;72.43
59487;BME280;45298;54.918;73.504;2023-02-03T03:23:26;101322.97;;;-23.50;72.25
59487;BME280;45298;54.918;73.504;2023-02-03T03:26:17;101324.72;;;-23.49;72.15
59487;BME280;45298;54.918;73.504;2023-02-03T03:32:09;101354.88;;;-23.12;72.72
59487;BME280;45298;54.918;73.504;2023-02-03T03:34:38;101287.91;;;-23.31;72.76
59487;BME280;45298;54.918;73.504;2023-02-03T03:39:59;101313.66;;;-22.77;72.97
59487;BME280;45298;54.918;73.504;2023-02-03T03:43:40;101344.94;;;-22.56;72.41
59487;BME280;45298;54.918;73.504;2023-02-03T03:45:45;101324.28;;;-22.71;72.08
59487;BME280;45298;54.918;73.504;2023-02-03T03:50:50;101319.78;;;-22.56;72.20
59487;BME280;45298;54.918;73.504;2023-02-03T03:53:22;101329.84;;;-22.37;72.74
59487;BME280;45298;54.918;73.504;2023-02-03T03:55:53;101346.13;;;-22.14;72.66
59487;BME280;45298;54.918;73.504;2023-02-03T03:58:26;101349.94;;;-22.09;72.43
59487;BME280;45298;54.918;73.504;2023-02-03T04:01:00;101336.28;;;-22.02;72.56
59487;BME280;45298;54.918;73.504;2023-02-03T04:03:54;101356.63;;;-21.91;72.22
59487;BME280;45298;54.918;73.504;2023-02-03T04:06:21;101359.03;;;-21.63;72.84
59487;BME280;45298;54.918;73.504;2023-02-03T04:08:50;101319.78;;;-21.61;72.85
59487;BME280;45298;54.918;73.504;2023-02-03T04:11:18;101358.75;;;-21.17;73.79
59487;BME280;45298;54.918;73.504;2023-02-03T04:14:06;101371.31;;;-20.88;73.00
59487;BME280;45298;54.918;73.504;2023-02-03T04:16:35;101367.19;;;-20.77;73.34
59487;BME280;45298;54.918;73.504;2023-02-03T04:19:03;101316.72;;;-20.87;72.82
59487;BME280;45298;54.918;73.504;2023-02-03T04:21:34;101328.34;;;-20.58;73.28
59487;BME280;45298;54.918;73.504;2023-02-03T04:24:03;101345.13;;;-20.38;73.28
59487;BME280;45298;54.918;73.504;2023-02-03T04:26:32;101248.16;;;-20.83;73.42
59487;BME280;45298;54.918;73.504;2023-02-03T04:29:02;101315.13;;;-20.35;73.58
59487;BME280;45298;54.918;73.504;2023-02-03T04:31:30;101374.97;;;-20.03;73.22
59487;BME280;45298;54.918;73.504;2023-02-03T04:34:02;101347.56;;;-19.98;73.29
59487;BME280;45298;54.918;73.504;2023-02-03T04:36:31;101369.50;;;-19.87;73.37
59487;BME280;45298;54.918;73.504;2023-02-03T04:39:00;101335.53;;;-19.90;73.82
59487;BME280;45298;54.918;73.504;2023-02-03T04:41:29;101351.28;;;-19.72;74.06
59487;BME280;45298;54.918;73.504;2023-02-03T04:43:58;101357.31;;;-19.60;73.85
59487;BME280;45298;54.918;73.504;2023-02-03T04:46:27;101344.94;;;-19.67;73.73
59487;BME280;45298;54.918;73.504;2023-02-03T04:48:56;101282.53;;;-20.01;73.42
59487;BME280;45298;54.918;73.504;2023-02-03T04:51:25;101359.59;;;-19.53;74.16
59487;BME280;45298;54.918;73.504;2023-02-03T04:53:54;101347.97;;;-19.61;73.64
59487;BME280;45298;54.918;73.504;2023-02-03T04:56:22;101397.13;;;-19.14;74.48
59487;BME280;45298;54.918;73.504;2023-02-03T04:58:51;101356.28;;;-19.19;74.62
59487;BME280;45298;54.918;73.504;2023-02-03T05:01:20;101379.13;;;-18.97;74.45
59487;BME280;45298;54.918;73.504;2023-02-03T05:03:51;101345.31;;;-18.97;74.38
59487;BME280;45298;54.918;73.504;2023-02-03T05:06:24;101358.97;;;-18.73;74.23
59487;BME280;45298;54.918;73.504;2023-02-03T05:08:53;101393.47;;;-18.41;74.15
59487;BME280;45298;54.918;73.504;2023-02-03T05:11:25;101355.25;;;-18.44;74.41
59487;BME280;45298;54.918;73.504;2023-02-03T05:13:56;101401.53;;;-18.01;74.30
59487;BME280;45298;54.918;73.504;2023-02-03T05:16:28;101347.66;;;-18.10;74.53
59487;BME280;45298;54.918;73.504;2023-02-03T05:18:57;101340.84;;;-17.87;75.08
59487;BME280;45298;54.918;73.504;2023-02-03T05:21:26;101376.69;;;-17.47;74.66
59487;BME280;45298;54.918;73.504;2023-02-03T05:23:55;101372.06;;;-17.29;74.70
59487;BME280;45298;54.918;73.504;2023-02-03T05:26:24;101355.94;;;-17.18;74.35
59487;BME280;45298;54.918;73.504;2023-02-03T05:28:52;101384.56;;;-16.83;74.90
59487;BME280;45298;54.918;73.504;2023-02-03T05:31:24;101371.31;;;-16.79;74.01
59487;BME280;45298;54.918;73.504;2023-02-03T05:33:53;101356.47;;;-16.61;74.33
59487;BME280;45298;54.918;73.504;2023-02-03T05:36:21;101359.47;;;-16.41;74.29
59487;BME280;45298;54.918;73.504;2023-02-03T05:38:50;101351.03;;;-16.28;74.31
59487;BME280;45298;54.918;73.504;2023-02-03T05:41:19;101347.88;;;-16.12;73.95
59487;BME280;45298;54.918;73.504;2023-02-03T05:44:07;101342.91;;;-15.97;73.75
59487;BME280;45298;54.918;73.504;2023-02-03T05:46:35;101388.84;;;-15.55;74.12
59487;BME280;45298;54.918;73.504;2023-02-03T05:49:04;101354.88;;;-15.56;74.18
59487;BME280;45298;54.918;73.504;2023-02-03T05:51:34;101388.75;;;-15.30;72.86
59487;BME280;45298;54.918;73.504;2023-02-03T05:54:03;101397.94;;;-15.19;73.91
59487;BME280;45298;54.918;73.504;2023-02-03T05:56:32;101355.75;;;-15.42;73.27
59487;BME280;45298;54.918;73.504;2023-02-03T05:59:01;101369.56;;;-15.25;73.17
59487;BME280;45298;54.918;73.504;2023-02-03T06:01:31;101344.22;;;-15.23;73.57
59487;BME280;45298;54.918;73.504;2023-02-03T06:04:00;101368.41;;;-15.03;73.20
59487;BME280;45298;54.918;73.504;2023-02-03T06:06:30;101249.44;;;-15.61;72.95
59487;BME280;45298;54.918;73.504;2023-02-03T06:09:06;101354.56;;;-14.93;73.77
59487;BME280;45298;54.918;73.504;2023-02-03T06:11:36;101336.63;;;-14.95;73.45
59487;BME280;45298;54.918;73.504;2023-02-03T06:14:05;101320.38;;;-14.97;72.88
59487;BME280;45298;54.918;73.504;2023-02-03T06:16:34;101348.59;;;-14.65;73.44
59487;BME280;45298;54.918;73.504;2023-02-03T06:19:07;101335.97;;;-14.64;73.15
59487;BME280;45298;54.918;73.504;2023-02-03T06:21:36;101352.53;;;-14.42;73.01
59487;BME280;45298;54.918;73.504;2023-02-03T06:24:04;101353.88;;;-14.34;72.96
59487;BME280;45298;54.918;73.504;2023-02-03T06:26:34;101336.28;;;-14.29;72.61
59487;BME280;45298;54.918;73.504;2023-02-03T06:29:02;101348.38;;;-14.12;72.95
59487;BME280;45298;54.918;73.504;2023-02-03T06:31:34;101322.06;;;-14.10;72.19
59487;BME280;45298;54.918;73.504;2023-02-03T06:34:03;101336.38;;;-13.84;72.24
59487;BME280;45298;54.918;73.504;2023-02-03T06:36:32;101312.44;;;-13.86;71.82
59487;BME280;45298;54.918;73.504;2023-02-03T06:39:03;101293.88;;;-13.84;71.88
59487;BME280;45298;54.918;73.504;2023-02-03T06:41:31;101298.97;;;-13.69;72.00
59487;BME280;45298;54.918;73.504;2023-02-03T06:44:00;101259.31;;;-13.78;71.97
59487;BME280;45298;54.918;73.504;2023-02-03T06:46:29;101200.06;;;-14.04;71.98
59487;BME280;45298;54.918;73.504;2023-02-03T06:48:59;101271.13;;;-13.49;72.38
59487;BME280;45298;54.918;73.504;2023-02-03T06:51:28;101292.78;;;-13.26;71.58
59487;BME280;45298;54.918;73.504;2023-02-03T06:54:00;101264.81;;;-13.24;72.21
59487;BME280;45298;54.918;73.504;2023-02-03T06:56:30;101274.78;;;-13.12;72.12
59487;BME280;45298;54.918;73.504;2023-02-03T06:58:59;101275.50;;;-12.98;71.68
59487;BME280;45298;54.918;73.504;2023-02-03T07:01:28;101308.22;;;-12.76;72.16
59487;BME280;45298;54.918;73.504;2023-02-03T07:03:58;101296.47;;;-12.72;71.74
59487;BME280;45298;54.918;73.504;2023-02-03T07:06:28;101306.34;;;-12.62;71.06
59487;BME280;45298;54.918;73.504;2023-02-03T07:09:04;101285.06;;;-12.63;71.22
59487;BME280;45298;54.918;73.504;2023-02-03T07:11:34;101311.16;;;-12.35;71.31
59487;BME280;45298;54.918;73.504;2023-02-03T07:14:03;101291.88;;;-12.28;71.99
59487;BME280;45298;54.918;73.504;2023-02-03T07:16:32;101283.16;;;-12.16;70.75
59487;BME280;45298;54.918;73.504;2023-02-03T07:19:02;101259.34;;;-12.15;71.09
59487;BME280;45298;54.918;73.504;2023-02-03T07:21:31;101285.09;;;-11.75;69.84
59487;BME280;45298;54.918;73.504;2023-02-03T07:24:01;101286.00;;;-11.39;69.83
59487;BME280;45298;54.918;73.504;2023-02-03T07:26:30;101281.94;;;-11.15;69.30
59487;BME280;45298;54.918;73.504;2023-02-03T07:28:59;101255.22;;;-11.02;68.99
59487;BME280;45298;54.918;73.504;2023-02-03T07:31:28;101296.16;;;-10.45;68.72
59487;BME280;45298;54.918;73.504;2023-02-03T07:33:58;101293.31;;;-10.32;68.64
59487;BME280;45298;54.918;73.504;2023-02-03T07:36:28;101273.34;;;-10.18;68.58
59487;BME280;45298;54.918;73.504;2023-02-03T07:38:56;101294.38;;;-9.85;68.06
59487;BME280;45298;54.918;73.504;2023-02-03T07:41:25;101288.56;;;-9.81;66.86
59487;BME280;45298;54.918;73.504;2023-02-03T07:43:54;101267.69;;;-9.68;67.22
59487;BME280;45298;54.918;73.504;2023-02-03T07:46:23;101271.31;;;-9.63;66.05
59487;BME280;45298;54.918;73.504;2023-02-03T07:48:53;101237.59;;;-9.71;65.87
59487;BME280;45298;54.918;73.504;2023-02-03T07:51:22;101243.94;;;-9.62;65.42
59487;BME280;45298;54.918;73.504;2023-02-03T07:53:51;101277.28;;;-9.41;65.68
59487;BME280;45298;54.918;73.504;2023-02-03T07:56:19;101261.91;;;-9.62;65.76
59487;BME280;45298;54.918;73.504;2023-02-03T07:58:51;101243.50;;;-9.73;64.91
59487;BME280;45298;54.918;73.504;2023-02-03T08:01:20;101227.13;;;-9.77;63.90
59487;BME280;45298;54.918;73.504;2023-02-03T08:03:49;101251.78;;;-9.59;63.92
59487;BME280;45298;54.918;73.504;2023-02-03T08:06:21;101250.16;;;-9.57;63.70
59487;BME280;45298;54.918;73.504;2023-02-03T08:08:50;101244.13;;;-9.58;64.02
59487;BME280;45298;54.918;73.504;2023-02-03T08:11:21;101241.63;;;-9.56;63.69
59487;BME280;45298;54.918;73.504;2023-02-03T08:13:50;101202.75;;;-9.87;63.34
59487;BME280;45298;54.918;73.504;2023-02-03T08:16:19;101220.09;;;-9.81;63.29
59487;BME280;45298;54.918;73.504;2023-02-03T08:18:47;101263.50;;;-9.66;63.22
59487;BME280;45298;54.918;73.504;2023-02-03T08:21:16;101200.63;;;-9.97;63.53
59487;BME280;45298;54.918;73.504;2023-02-03T08:23:45;101216.97;;;-9.95;63.76
59487;BME280;45298;54.918;73.504;2023-02-03T08:26:14;101215.09;;;-9.99;63.14
59487;BME280;45298;54.918;73.504;2023-02-03T08:28:48;101245.81;;;-9.79;63.51
59487;BME280;45298;54.918;73.504;2023-02-03T08:31:20;101201.91;;;-10.08;63.46
59487;BME280;45298;54.918;73.504;2023-02-03T08:33:49;101209.09;;;-9.99;63.30
59487;BME280;45298;54.918;73.504;2023-02-03T08:36:18;101216.63;;;-10.04;62.87
59487;BME280;45298;54.918;73.504;2023-02-03T08:38:46;101208.47;;;-10.15;62.72
59487;BME280;45298;54.918;73.504;2023-02-03T08:41:16;101254.78;;;-9.91;63.32
59487;BME280;45298;54.918;73.504;2023-02-03T08:43:45;101215.22;;;-10.17;63.07
59487;BME280;45298;54.918;73.504;2023-02-03T08:46:14;101215.38;;;-10.14;63.28
59487;BME280;45298;54.918;73.504;2023-02-03T08:48:43;101179.94;;;-10.44;62.67
59487;BME280;45298;54.918;73.504;2023-02-03T08:51:14;101232.78;;;-10.26;62.97
59487;BME280;45298;54.918;73.504;2023-02-03T08:53:43;101200.22;;;-10.50;63.88
59487;BME280;45298;54.918;73.504;2023-02-03T08:56:12;101209.78;;;-10.46;63.44
59487;BME280;45298;54.918;73.504;2023-02-03T08:58:41;101247.94;;;-10.33;63.00
59487;BME280;45298;54.918;73.504;2023-02-03T09:01:14;101236.50;;;-10.41;62.77
59487;BME280;45298;54.918;73.504;2023-02-03T09:03:43;101238.25;;;-10.40;62.71
59487;BME280;45298;54.918;73.504;2023-02-03T09:06:12;101145.97;;;-11.00;62.75
59487;BME280;45298;54.918;73.504;2023-02-03T09:08:44;101223.78;;;-10.59;63.10
59487;BME280;45298;54.918;73.504;2023-02-03T09:11:16;101192.28;;;-10.76;62.38
59487;BME280;45298;54.918;73.504;2023-02-03T09:13:44;101144.59;;;-11.12;62.28
59487;BME280;45298;54.918;73.504;2023-02-03T09:16:16;101195.47;;;-10.82;62.33
59487;BME280;45298;54.918;73.504;2023-02-03T09:18:45;101243.94;;;-10.67;62.09
59487;BME280;45298;54.918;73.504;2023-02-03T09:21:14;101232.78;;;-10.69;63.02
59487;BME280;45298;54.918;73.504;2023-02-03T09:24:03;101233.34;;;-10.74;62.27
59487;BME280;45298;54.918;73.504;2023-02-03T09:26:33;101233.00;;;-10.82;62.88
59487;BME280;45298;54.918;73.504;2023-02-03T09:29:01;101235.19;;;-10.91;62.17
59487;BME280;45298;54.918;73.504;2023-02-03T09:31:30;101222.69;;;-11.03;63.32
59487;BME280;45298;54.918;73.504;2023-02-03T09:34:04;101182.06;;;-11.33;62.51
59487;BME280;45298;54.918;73.504;2023-02-03T09:36:43;101199.44;;;-11.28;62.54
59487;BME280;45298;54.918;73.504;2023-02-03T09:39:21;101240.44;;;-11.08;63.26
59487;BME280;45298;54.918;73.504;2023-02-03T09:44:37;101255.22;;;-11.20;62.08
59487;BME280;45298;54.918;73.504;2023-02-03T09:47:34;101259.78;;;-11.33;63.27
59487;BME280;45298;54.918;73.504;2023-02-03T09:50:13;101233.78;;;-11.60;62.89
59487;BME280;45298;54.918;73.504;2023-02-03T09:52:42;101143.25;;;-12.18;62.50
59487;BME280;45298;54.918;73.504;2023-02-03T09:55:35;101256.06;;;-11.58;61.69
59487;BME280;45298;54.918;73.504;2023-02-03T09:58:11;101259.81;;;-11.69;62.16
59487;BME280;45298;54.918;73.504;2023-02-03T10:00:49;101266.38;;;-11.74;61.87
59487;BME280;45298;54.918;73.504;2023-02-03T10:03:47;101226.00;;;-11.98;62.75
59487;BME280;45298;54.918;73.504;2023-02-03T10:20:34;101276.88;;;-12.22;63.01
59487;BME280;45298;54.918;73.504;2023-02-03T10:23:13;101250.53;;;-12.38;63.78
59487;BME280;45298;54.918;73.504;2023-02-03T10:25:50;101254.75;;;-12.38;64.41
59487;BME280;45298;54.918;73.504;2023-02-03T10:28:30;101271.44;;;-12.28;64.14
59487;BME280;45298;54.918;73.504;2023-02-03T10:31:06;101260.19;;;-12.32;63.96
59487;BME280;45298;54.918;73.504;2023-02-03T10:33:41;101266.16;;;-12.32;64.35
59487;BME280;45298;54.918;73.504;2023-02-03T10:36:20;101214.50;;;-12.59;64.83
59487;BME280;45298;54.918;73.504;2023-02-03T10:41:30;101212.59;;;-12.63;63.92
59487;BME280;45298;54.918;73.504;2023-02-03T10:44:06;101254.94;;;-12.52;63.61
59487;BME280;45298;54.918;73.504;2023-02-03T10:46:38;101271.88;;;-12.54;63.76
59487;BME280;45298;54.918;73.504;2023-02-03T10:49:10;101246.16;;;-12.73;63.39
59487;BME280;45298;54.918;73.504;2023-02-03T10:51:47;101276.34;;;-12.66;62.98
59487;BME280;45298;54.918;73.504;2023-02-03T10:54:30;101266.09;;;-12.83;63.44
59487;BME280;45298;54.918;73.504;2023-02-03T10:57:20;101229.75;;;-13.10;64.37
59487;BME280;45298;54.918;73.504;2023-02-03T10:59:49;101221.41;;;-13.24;64.17
59487;BME280;45298;54.918;73.504;2023-02-03T11:02:24;101237.63;;;-13.39;63.45
59487;BME280;45298;54.918;73.504;2023-02-03T11:07:45;101234.97;;;-13.88;64.75
59487;BME280;45298;54.918;73.504;2023-02-03T11:10:33;101216.94;;;-14.06;64.72
59487;BME280;45298;54.918;73.504;2023-02-03T11:15:59;101247.63;;;-14.05;64.58
59487;BME280;45298;54.918;73.504;2023-02-03T11:18:42;101213.69;;;-14.34;65.39
59487;BME280;45298;54.918;73.504;2023-02-03T11:21:27;101182.03;;;-14.67;65.09
59487;BME280;45298;54.918;73.504;2023-02-03T11:24:05;101243.69;;;-14.30;65.69
59487;BME280;45298;54.918;73.504;2023-02-03T11:26:43;101202.38;;;-14.69;65.49
59487;BME280;45298;54.918;73.504;2023-02-03T11:29:23;101243.41;;;-14.49;65.83
59487;BME280;45298;54.918;73.504;2023-02-03T11:31:55;101236.16;;;-14.56;65.94
59487;BME280;45298;54.918;73.504;2023-02-03T11:34:36;101192.69;;;-14.90;65.85
59487;BME280;45298;54.918;73.504;2023-02-03T11:45:49;101173.69;;;-15.52;66.24
59487;BME280;45298;54.918;73.504;2023-02-03T11:48:28;101243.66;;;-15.16;66.87
59487;BME280;45298;54.918;73.504;2023-02-03T11:50:59;101261.69;;;-15.13;65.95
59487;BME280;45298;54.918;73.504;2023-02-03T11:53:57;101258.84;;;-15.18;66.77
59487;BME280;45298;54.918;73.504;2023-02-03T11:57:11;101249.19;;;-15.37;66.47
59487;BME280;45298;54.918;73.504;2023-02-03T12:30:23;101233.34;;;-15.88;67.08
59487;BME280;45298;54.918;73.504;2023-02-03T12:33:45;101214.19;;;-16.10;67.26
59487;BME280;45298;54.918;73.504;2023-02-03T12:41:39;101238.28;;;-16.30;67.71
59487;BME280;45298;54.918;73.504;2023-02-03T12:44:24;101256.75;;;-16.19;67.30
59487;BME280;45298;54.918;73.504;2023-02-03T12:47:04;101205.09;;;-16.59;67.91
59487;BME280;45298;54.918;73.504;2023-02-03T12:49:55;101264.19;;;-16.22;68.10
59487;BME280;45298;54.918;73.504;2023-02-03T12:52:35;101229.16;;;-16.40;67.92
59487;BME280;45298;54.918;73.504;2023-02-03T12:58:30;101239.66;;;-16.22;68.39
59487;BME280;45298;54.918;73.504;2023-02-03T13:01:07;101281.13;;;-15.96;67.24
59487;BME280;45298;54.918;73.504;2023-02-03T13:07:03;101231.25;;;-16.21;66.95
59487;BME280;45298;54.918;73.504;2023-02-03T13:12:34;101216.97;;;-16.32;68.57
59487;BME280;45298;54.918;73.504;2023-02-03T13:17:54;101256.88;;;-15.91;67.16
59487;BME280;45298;54.918;73.504;2023-02-03T13:20:29;101226.69;;;-16.00;68.07
59487;BME280;45298;54.918;73.504;2023-02-03T13:23:06;101284.44;;;-15.57;67.98
59487;BME280;45298;54.918;73.504;2023-02-03T13:26:11;101270.47;;;-15.50;68.28
59487;BME280;45298;54.918;73.504;2023-02-03T13:41:29;101255.06;;;-15.25;68.14
59487;BME280;45298;54.918;73.504;2023-02-03T13:44:00;101183.31;;;-15.61;67.66
59487;BME280;45298;54.918;73.504;2023-02-03T13:46:33;101201.34;;;-15.43;68.41
59487;BME280;45298;54.918;73.504;2023-02-03T13:49:05;101207.41;;;-15.41;67.66
59487;BME280;45298;54.918;73.504;2023-02-03T13:51:42;101251.50;;;-15.13;67.75
59487;BME280;45298;54.918;73.504;2023-02-03T13:54:28;101227.41;;;-15.19;68.22
59487;BME280;45298;54.918;73.504;2023-02-03T13:57:01;101216.84;;;-15.11;68.83
59487;BME280;45298;54.918;73.504;2023-02-03T14:07:35;101216.56;;;-14.87;68.70
59487;BME280;45298;54.918;73.504;2023-02-03T14:21:08;101218.44;;;-14.55;68.56
59487;BME280;45298;54.918;73.504;2023-02-03T14:23:42;101222.81;;;-14.52;68.57
59487;BME280;45298;54.918;73.504;2023-02-03T14:26:20;101196.00;;;-14.61;68.58
59487;BME280;45298;54.918;73.504;2023-02-03T14:28:51;101217.31;;;-14.45;68.52
59487;BME280;45298;54.918;73.504;2023-02-03T14:31:24;101239.38;;;-14.31;69.04
59487;BME280;45298;54.918;73.504;2023-02-03T14:34:07;101212.28;;;-14.44;68.39
59487;BME280;45298;54.918;73.504;2023-02-03T14:44:47;101275.41;;;-13.94;68.62
59487;BME280;45298;54.918;73.504;2023-02-03T14:53:19;101272.94;;;-13.78;68.00
59487;BME280;45298;54.918;73.504;2023-02-03T14:55:58;101272.31;;;-13.74;69.05
59487;BME280;45298;54.918;73.504;2023-02-03T14:58:35;101232.06;;;-13.94;68.38
59487;BME280;45298;54.918;73.504;2023-02-03T15:06:49;101250.41;;;-13.70;68.31
59487;BME280;45298;54.918;73.504;2023-02-03T15:11:52;101224.63;;;-13.75;68.51
59487;BME280;45298;54.918;73.504;2023-02-03T15:14:24;101223.41;;;-13.67;68.42
59487;BME280;45298;54.918;73.504;2023-02-03T15:17:02;101253.59;;;-13.43;68.56
59487;BME280;45298;54.918;73.504;2023-02-03T15:19:38;101209.13;;;-13.63;68.55
59487;BME280;45298;54.918;73.504;2023-02-03T15:22:27;101211.94;;;-13.58;68.31
59487;BME280;45298;54.918;73.504;2023-02-03T15:25:00;101235.72;;;-13.43;69.04
59487;BME280;45298;54.918;73.504;2023-02-03T15:27:32;101262.06;;;-13.27;68.67
59487;BME280;45298;54.918;73.504;2023-02-03T15:30:34;101256.41;;;-13.22;68.69
59487;BME280;45298;54.918;73.504;2023-02-03T15:33:22;101220.03;;;-13.34;68.98
59487;BME280;45298;54.918;73.504;2023-02-03T15:35:56;101233.34;;;-13.23;69.35
59487;BME280;45298;54.918;73.504;2023-02-03T15:38:37;101241.00;;;-13.23;69.22
59487;BME280;45298;54.918;73.504;2023-02-03T15:41:19;101214.25;;;-13.30;69.56
59487;BME280;45298;54.918;73.504;2023-02-03T15:43:57;101239.28;;;-13.08;68.83
59487;BME280;45298;54.918;73.504;2023-02-03T15:46:39;101209.56;;;-13.22;69.00